Time;durP1;ratioP1;P1;durP2;ratioP2;P2;SDS_P1;SDS_P2;PMS_P1;PMS_P2;Temp;Humidity;BMP_temperature;BMP_pressure;BME280_temperature;BME280_humidity;BME280_pressure;Samples;Min_cycle;Max_cycle;Signal;HPM_P1;HPM_P2
2023/12/01 00:00:09;;;;;;;11.23;9.40;;;;;;;3.02;100.00;96437.66;4993672;28;20710;-75
2023/12/01 00:02:35;;;;;;;11.00;8.80;;;;;;;3.00;100.00;96434.44;4994056;28;20215;-75
2023/12/01 00:05:02;;;;;;;10.57;9.30;;;;;;;2.99;100.00;96435.44;4993714;28;20693;-75
2023/12/01 00:07:28;;;;;;;11.00;9.50;;;;;;;3.00;100.00;96428.38;4993788;28;20674;-75
2023/12/01 00:09:54;;;;;;;10.80;9.33;;;;;;;3.03;100.00;96431.38;4994092;28;20235;-75
2023/12/01 00:12:21;;;;;;;10.70;9.60;;;;;;;2.96;100.00;96433.25;4993938;28;20230;-75
2023/12/01 00:14:47;;;;;;;12.97;9.57;;;;;;;3.10;100.00;96413.78;4993900;28;20213;-75
2023/12/01 00:17:13;;;;;;;12.37;10.07;;;;;;;3.06;100.00;96419.66;4993908;28;20211;-75
2023/12/01 00:19:41;;;;;;;11.00;9.47;;;;;;;3.04;100.00;96413.81;4993754;28;20233;-75
2023/12/01 00:22:08;;;;;;;11.97;9.47;;;;;;;3.02;100.00;96437.66;4993831;28;20207;-75
2023/12/01 00:24:34;;;;;;;11.13;9.90;;;;;;;2.99;100.00;96430.19;4993858;28;20207;-75
2023/12/01 00:27:01;;;;;;;12.67;10.27;;;;;;;2.96;100.00;96433.25;4993782;28;20302;-75
2023/12/01 00:29:28;;;;;;;13.10;10.47;;;;;;;2.97;100.00;96415.66;4993403;28;20596;-75
2023/12/01 00:31:54;;;;;;;12.03;9.90;;;;;;;2.86;100.00;96422.41;4993754;28;20223;-75
2023/12/01 00:34:20;;;;;;;12.27;10.40;;;;;;;2.85;100.00;96428.66;4993812;28;20207;-75
2023/12/01 00:37:22;;;;;;;12.70;10.67;;;;;;;2.85;100.00;96422.63;4993704;28;20621;-75
2023/12/01 00:39:48;;;;;;;13.07;10.70;;;;;;;2.90;100.00;96425.41;4993026;28;20714;-75
2023/12/01 00:42:15;;;;;;;13.20;10.50;;;;;;;2.92;100.00;96433.88;4993346;28;20208;-75
2023/12/01 00:44:41;;;;;;;11.63;10.03;;;;;;;2.87;100.00;96433.69;4994649;28;20689;-75
2023/12/01 00:47:08;;;;;;;13.63;10.60;;;;;;;3.09;100.00;96427.94;4997154;28;20314;-75
2023/12/01 00:49:34;;;;;;;13.73;10.73;;;;;;;3.25;100.00;96421.38;4997052;28;20224;-75
2023/12/01 00:52:01;;;;;;;13.23;10.60;;;;;;;3.18;100.00;96431.09;4996734;28;20230;-75
2023/12/01 00:54:27;;;;;;;13.37;10.57;;;;;;;2.99;100.00;96440.69;4997092;28;20295;-75
2023/12/01 00:56:54;;;;;;;14.50;10.87;;;;;;;2.80;100.00;96444.22;4997018;28;20213;-75
2023/12/01 00:59:20;;;;;;;15.83;11.33;;;;;;;2.75;100.00;96444.06;4996907;28;20233;-75
2023/12/01 01:01:47;;;;;;;13.93;11.27;;;;;;;2.89;100.00;96440.34;4996930;28;20203;-75
2023/12/01 01:04:13;;;;;;;15.70;12.13;;;;;;;2.87;100.00;96437.13;4996875;28;20211;-75
2023/12/01 01:06:40;;;;;;;15.37;11.30;;;;;;;2.81;100.00;96439.78;4996825;28;20207;-75
2023/12/01 01:09:06;;;;;;;16.73;12.73;;;;;;;2.78;100.00;96437.56;4996408;28;20594;-75
2023/12/01 01:11:32;;;;;;;15.13;12.37;;;;;;;2.67;100.00;96433.00;4996675;28;20322;-75
2023/12/01 01:14:00;;;;;;;14.97;11.37;;;;;;;2.55;100.00;96438.09;4996621;28;20208;-75
2023/12/01 01:16:26;;;;;;;15.43;12.33;;;;;;;2.66;100.00;96432.19;4996300;28;20210;-75
2023/12/01 01:18:52;;;;;;;16.00;12.23;;;;;;;2.52;100.00;96433.25;4996494;28;20231;-75
2023/12/01 01:21:19;;;;;;;15.73;12.93;;;;;;;2.47;100.00;96432.25;4996574;28;20210;-75
2023/12/01 01:23:46;;;;;;;16.83;12.60;;;;;;;2.46;100.00;96433.28;4996229;28;20207;-75
2023/12/01 01:26:14;;;;;;;15.70;12.80;;;;;;;2.40;100.00;96437.53;4996478;28;20321;-75
2023/12/01 01:28:41;;;;;;;15.33;12.50;;;;;;;2.42;100.00;96435.53;4995949;28;20213;-75
2023/12/01 01:31:08;;;;;;;15.63;13.33;;;;;;;2.37;100.00;96437.97;4996320;28;20208;-75
2023/12/01 01:33:36;;;;;;;16.10;13.07;;;;;;;2.28;100.00;96444.44;4996326;28;20257;-75
2023/12/01 01:36:02;;;;;;;14.70;12.60;;;;;;;2.38;100.00;96434.31;4996263;28;20203;-75
2023/12/01 01:38:29;;;;;;;15.93;11.87;;;;;;;2.35;100.00;96442.59;4995847;28;20210;-75
2023/12/01 01:40:56;;;;;;;14.67;12.60;;;;;;;2.45;100.00;96439.53;4996180;28;20207;-75
2023/12/01 01:43:23;;;;;;;15.10;11.80;;;;;;;2.44;100.00;96437.94;4996107;28;20204;-75
2023/12/01 01:46:02;;;;;;;16.53;13.40;;;;;;;2.41;100.00;96448.84;4996093;28;20214;-75
2023/12/01 01:48:30;;;;;;;15.20;12.83;;;;;;;2.42;100.00;96440.78;4996033;28;20207;-75
2023/12/01 01:50:56;;;;;;;14.67;12.67;;;;;;;2.41;100.00;96443.59;4995988;28;20204;-75
2023/12/01 01:53:24;;;;;;;16.57;13.57;;;;;;;2.33;100.00;96443.81;4995487;28;20233;-75
2023/12/01 01:55:51;;;;;;;17.37;12.60;;;;;;;2.35;100.00;96439.19;4995164;28;20218;-75
2023/12/01 01:58:18;;;;;;;15.30;13.23;;;;;;;2.37;100.00;96450.25;4995931;28;20215;-75
2023/12/01 02:00:49;;;;;;;18.57;13.17;;;;;;;2.38;100.00;96455.31;4995771;28;20233;-75
2023/12/01 02:03:17;;;;;;;14.50;12.93;;;;;;;2.26;100.00;96461.41;4995835;28;20192;-75
2023/12/01 02:05:47;;;;;;;16.10;13.97;;;;;;;2.24;100.00;96474.72;4994606;28;20207;-75
2023/12/01 02:08:27;;;;;;;17.93;14.70;;;;;;;2.30;100.00;96468.63;4995631;28;20222;-75
2023/12/01 02:10:55;;;;;;;15.70;13.60;;;;;;;2.37;100.00;96482.53;4995419;28;20207;-75
2023/12/01 02:13:23;;;;;;;14.70;12.43;;;;;;;2.36;100.00;96488.81;4995556;28;20223;-75
2023/12/01 02:15:50;;;;;;;18.57;14.30;;;;;;;2.33;100.00;96472.66;4995480;28;20214;-76
2023/12/01 02:18:23;;;;;;;17.07;13.37;;;;;;;2.39;100.00;96461.38;4995074;28;20641;-75
2023/12/01 02:20:51;;;;;;;15.90;12.90;;;;;;;2.32;100.00;96456.13;4995380;28;20223;-75
2023/12/01 02:23:18;;;;;;;15.80;13.07;;;;;;;2.29;100.00;96459.16;4995406;28;20210;-75
2023/12/01 02:25:44;;;;;;;17.47;13.80;;;;;;;2.29;100.00;96459.16;4995004;28;20207;-75
2023/12/01 02:28:11;;;;;;;17.03;13.00;;;;;;;2.24;100.00;96456.34;4994946;28;20213;-75
2023/12/01 02:30:37;;;;;;;15.83;13.17;;;;;;;2.23;100.00;96467.84;4995124;28;20611;-75
2023/12/01 02:33:04;;;;;;;14.33;12.83;;;;;;;2.15;100.00;96457.59;4995061;28;20227;-75
2023/12/01 02:35:30;;;;;;;13.87;12.37;;;;;;;2.08;100.00;96469.09;4994827;28;20581;-75
2023/12/01 02:37:57;;;;;;;16.10;12.93;;;;;;;2.09;100.00;96465.47;4995111;28;20214;-75
2023/12/01 02:40:25;;;;;;;14.53;12.30;;;;;;;2.07;100.00;96462.25;4994718;28;20318;-75
2023/12/01 02:42:52;;;;;;;13.43;12.03;;;;;;;2.08;100.00;96472.50;4994672;28;20203;-75
2023/12/01 02:45:19;;;;;;;15.73;12.33;;;;;;;2.04;100.00;96457.41;4994940;28;20207;-75
2023/12/01 02:47:47;;;;;;;15.00;12.27;;;;;;;2.02;100.00;96460.22;4994926;28;20214;-75
2023/12/01 02:50:18;;;;;;;15.20;12.60;;;;;;;1.99;100.00;96454.59;4994500;28;20590;-75
2023/12/01 02:52:45;;;;;;;16.93;12.47;;;;;;;1.87;100.00;96461.47;4994371;28;20690;-75
2023/12/01 02:55:12;;;;;;;15.13;12.13;;;;;;;1.92;100.00;96464.28;4994801;28;20238;-75
2023/12/01 02:57:40;;;;;;;16.70;12.47;;;;;;;1.83;100.00;96479.41;4994410;28;20331;-75
2023/12/01 03:00:13;;;;;;;15.13;12.00;;;;;;;1.79;100.00;96482.63;4994624;28;20235;-75
2023/12/01 03:02:40;;;;;;;14.67;11.83;;;;;;;1.88;100.00;96473.53;4994635;28;20205;-75
2023/12/01 03:05:07;;;;;;;15.70;12.40;;;;;;;1.73;100.00;96470.34;4994259;28;20222;-75
2023/12/01 03:07:34;;;;;;;14.63;11.70;;;;;;;1.94;100.00;96455.19;4993847;28;20207;-75
2023/12/01 03:10:01;;;;;;;13.23;11.87;;;;;;;1.87;100.00;96456.22;4994491;28;20231;-75
2023/12/01 03:12:27;;;;;;;15.17;12.60;;;;;;;1.62;100.00;96465.72;4994471;28;20223;-75
2023/12/01 03:14:53;;;;;;;16.13;12.60;;;;;;;1.56;100.00;96462.09;4994206;28;20214;-75
2023/12/01 03:17:23;;;;;;;13.30;11.60;;;;;;;1.61;100.00;96461.47;4994452;28;20215;-75
2023/12/01 03:19:49;;;;;;;13.57;11.60;;;;;;;1.64;100.00;96466.31;4994081;28;20227;-75
2023/12/01 03:22:16;;;;;;;13.10;11.70;;;;;;;1.63;100.00;96480.41;4994102;28;20208;-75
2023/12/01 03:24:43;;;;;;;15.80;12.20;;;;;;;1.71;100.00;96483.63;4994395;28;20214;-75
2023/12/01 03:27:09;;;;;;;13.37;11.50;;;;;;;1.68;100.00;96484.06;4994286;28;20218;-75
2023/12/01 03:29:36;;;;;;;13.70;12.23;;;;;;;1.65;100.00;96488.88;4994222;28;20278;-75
2023/12/01 03:32:02;;;;;;;13.37;11.83;;;;;;;1.59;100.00;96474.78;4994183;28;20223;-75
2023/12/01 03:34:29;;;;;;;13.53;12.07;;;;;;;1.56;100.00;96476.97;4994226;28;20203;-75
2023/12/01 03:36:55;;;;;;;16.63;13.07;;;;;;;1.63;100.00;96475.97;4994184;28;20203;-75
2023/12/01 03:39:22;;;;;;;14.83;13.23;;;;;;;1.61;100.00;96470.13;4994085;28;20230;-75
2023/12/01 03:41:49;;;;;;;15.87;13.33;;;;;;;1.65;100.00;96467.91;4994258;28;20215;-75
2023/12/01 03:44:16;;;;;;;17.70;14.33;;;;;;;1.62;100.00;96465.72;4994140;28;20573;-75
2023/12/01 03:46:43;;;;;;;19.07;14.53;;;;;;;1.62;100.00;96463.09;4994066;28;20210;-75
2023/12/01 03:49:10;;;;;;;19.63;14.17;;;;;;;1.68;100.00;96463.09;4993984;28;20227;-75
2023/12/01 03:51:37;;;;;;;18.60;15.03;;;;;;;1.53;100.00;96466.94;4993611;28;20215;-75
2023/12/01 03:54:03;;;;;;;17.30;14.40;;;;;;;1.46;100.00;96466.09;4993741;28;20674;-75
2023/12/01 03:56:30;;;;;;;18.37;15.67;;;;;;;1.51;100.00;96467.13;4994039;28;20211;-75
2023/12/01 03:58:57;;;;;;;19.23;16.20;;;;;;;1.38;100.00;96471.53;4993932;28;20227;-75
2023/12/01 04:01:23;;;;;;;23.13;16.43;;;;;;;1.32;100.00;96472.34;4993730;28;20211;-75
2023/12/01 04:03:50;;;;;;;20.20;16.00;;;;;;;1.36;100.00;96473.56;4993942;28;20208;-75
2023/12/01 04:06:17;;;;;;;21.33;16.73;;;;;;;1.33;100.00;96469.53;4993891;28;20286;-75
2023/12/01 04:08:43;;;;;;;20.90;16.50;;;;;;;1.35;100.00;96472.75;4993598;28;20333;-75
2023/12/01 04:11:10;;;;;;;23.73;16.67;;;;;;;1.30;100.00;96469.91;4992718;28;20643;-75
2023/12/01 04:13:36;;;;;;;19.97;15.90;;;;;;;1.38;100.00;96461.06;4993867;28;20223;-75
2023/12/01 04:16:02;;;;;;;20.80;16.03;;;;;;;1.33;100.00;96473.94;4993856;28;20207;-75
2023/12/01 04:18:31;;;;;;;19.83;15.30;;;;;;;1.40;100.00;96485.25;4994594;28;20666;-75
2023/12/01 04:20:58;;;;;;;18.53;15.50;;;;;;;1.47;100.00;96484.22;4997225;28;20571;-75
2023/12/01 04:23:24;;;;;;;20.20;15.03;;;;;;;1.53;100.00;96482.63;4997399;28;20270;-73
2023/12/01 04:25:51;;;;;;;17.70;14.73;;;;;;;1.44;100.00;96470.75;4997042;28;20661;-73
2023/12/01 04:28:17;;;;;;;18.97;15.67;;;;;;;1.48;100.00;96471.97;4997299;28;20575;-73
2023/12/01 04:30:44;;;;;;;19.70;15.43;;;;;;;1.40;100.00;96480.00;4997028;28;20821;-74
2023/12/01 04:33:13;;;;;;;20.07;14.73;;;;;;;1.41;100.00;96485.03;4996839;28;20229;-75
2023/12/01 04:35:40;;;;;;;19.13;15.67;;;;;;;1.45;100.00;96483.66;4996983;28;20630;-75
2023/12/01 04:38:08;;;;;;;17.93;15.43;;;;;;;1.37;100.00;96490.88;4997017;28;20218;-75
2023/12/01 04:40:36;;;;;;;15.97;14.33;;;;;;;1.40;100.00;96480.00;4996605;28;20230;-75
2023/12/01 04:43:03;;;;;;;16.60;13.67;;;;;;;1.50;100.00;96477.78;4997120;28;20207;-75
2023/12/01 04:45:35;;;;;;;19.27;14.10;;;;;;;1.44;100.00;96476.00;4997104;28;20302;-75
2023/12/01 04:48:02;;;;;;;19.50;14.33;;;;;;;1.45;100.00;96482.81;4997017;28;20241;-75
2023/12/01 04:50:31;;;;;;;16.63;12.60;;;;;;;1.32;100.00;96485.44;4996724;28;20223;-75
2023/12/01 04:53:00;;;;;;;16.33;13.43;;;;;;;1.33;100.00;96485.22;4996505;28;20231;-75
2023/12/01 04:55:29;;;;;;;13.43;12.00;;;;;;;1.38;100.00;96487.22;4996959;28;20619;-75
2023/12/01 04:57:58;;;;;;;14.20;12.73;;;;;;;1.42;100.00;96484.03;4996622;28;20207;-75
2023/12/01 05:00:25;;;;;;;15.07;12.33;;;;;;;1.35;100.00;96490.28;4996736;28;20706;-75
2023/12/01 05:03:00;;;;;;;12.80;11.50;;;;;;;1.38;100.00;96474.97;4996614;28;20233;-75
2023/12/01 05:05:41;;;;;;;15.43;12.90;;;;;;;1.36;100.00;96473.56;4996367;28;20213;-75
2023/12/01 05:08:10;;;;;;;17.23;12.70;;;;;;;1.26;100.00;96478.38;4995987;28;20670;-74
2023/12/01 05:10:38;;;;;;;13.90;12.43;;;;;;;1.18;100.00;96489.03;4996516;28;20262;-74
2023/12/01 05:13:06;;;;;;;14.93;13.00;;;;;;;1.20;100.00;96487.81;4996214;28;20250;-74
2023/12/01 05:15:34;;;;;;;11.37;10.23;;;;;;;1.36;100.00;96486.66;4996206;28;20295;-74
2023/12/01 05:18:04;;;;;;;12.33;11.13;;;;;;;1.26;100.00;96492.25;4996182;28;20692;-74
2023/12/01 05:20:32;;;;;;;13.20;11.90;;;;;;;1.17;100.00;96493.44;4996164;28;20235;-74
2023/12/01 05:23:08;;;;;;;15.10;12.47;;;;;;;1.11;100.00;96485.56;4996254;28;20200;-75
2023/12/01 05:25:34;;;;;;;13.30;11.90;;;;;;;1.27;100.00;96485.22;4996262;28;20202;-75
2023/12/01 05:28:02;;;;;;;14.77;13.13;;;;;;;1.19;100.00;96488.03;4996257;28;20663;-75
2023/12/01 05:30:31;;;;;;;14.87;12.97;;;;;;;1.11;100.00;96485.56;4995459;28;20230;-75
2023/12/01 05:32:59;;;;;;;14.50;13.10;;;;;;;1.13;100.00;96489.59;4996287;28;20233;-75
2023/12/01 05:35:26;;;;;;;15.87;13.73;;;;;;;1.11;100.00;96503.91;4996046;28;20618;-75
2023/12/01 05:37:54;;;;;;;12.87;11.43;;;;;;;1.17;100.00;96505.75;4995854;28;20218;-75
2023/12/01 05:40:28;;;;;;;14.00;12.50;;;;;;;1.26;100.00;96509.78;4995434;28;20242;-75
2023/12/01 05:42:58;;;;;;;12.73;11.43;;;;;;;1.28;100.00;96505.97;4995657;28;20191;-75
2023/12/01 05:45:35;;;;;;;12.90;11.70;;;;;;;1.31;100.00;96510.00;4995316;28;20566;-75
2023/12/01 05:48:02;;;;;;;13.73;12.13;;;;;;;1.34;100.00;96512.19;4995605;28;20285;-75
2023/12/01 05:50:33;;;;;;;11.93;10.83;;;;;;;1.37;100.00;96512.63;4995340;28;20277;-75
2023/12/01 05:53:01;;;;;;;12.27;11.07;;;;;;;1.43;100.00;96524.09;4995278;28;20326;-75
2023/12/01 05:55:29;;;;;;;12.83;11.53;;;;;;;1.39;100.00;96515.84;4995472;28;20294;-75
2023/12/01 05:57:57;;;;;;;15.20;12.40;;;;;;;1.35;100.00;96514.63;4995494;28;20221;-75
2023/12/01 06:00:29;;;;;;;15.40;10.80;;;;;;;1.28;100.00;96513.00;4995205;28;20222;-75
2023/12/01 06:02:57;;;;;;;13.47;12.13;;;;;;;1.31;100.00;96510.78;4995337;28;20282;-75
2023/12/01 06:05:23;;;;;;;12.40;11.10;;;;;;;1.40;100.00;96503.56;4995338;28;20211;-75
2023/12/01 06:07:54;;;;;;;12.60;11.37;;;;;;;1.35;100.00;96511.22;4995507;28;20306;-75
2023/12/01 06:10:22;;;;;;;12.40;11.13;;;;;;;1.33;100.00;96510.59;4995946;28;20227;-75
2023/12/01 06:12:48;;;;;;;11.87;10.67;;;;;;;1.34;100.00;96515.63;4995238;28;20223;-75
2023/12/01 06:15:16;;;;;;;13.00;11.63;;;;;;;1.36;100.00;96520.66;4995097;28;20214;-75
2023/12/01 06:17:44;;;;;;;15.40;11.80;;;;;;;1.33;100.00;96529.72;4995310;28;20265;-75
2023/12/01 06:20:18;;;;;;;17.07;13.50;;;;;;;1.32;100.00;96528.13;4995063;28;20229;-75
2023/12/01 06:22:52;;;;;;;14.00;12.53;;;;;;;1.36;100.00;96533.75;4995466;28;20192;-75
2023/12/01 06:25:26;;;;;;;13.50;12.07;;;;;;;1.31;100.00;96546.66;4995001;28;20213;-75
2023/12/01 06:27:53;;;;;;;14.67;13.00;;;;;;;1.30;100.00;96543.22;4995099;28;20206;-75
2023/12/01 06:30:19;;;;;;;13.33;12.03;;;;;;;1.32;100.00;96548.25;4994973;28;20226;-75
2023/12/01 06:32:46;;;;;;;13.53;12.13;;;;;;;1.32;100.00;96540.41;4994967;28;20227;-75
2023/12/01 06:35:15;;;;;;;14.03;12.63;;;;;;;1.41;100.00;96545.25;4994837;28;20586;-75
2023/12/01 06:37:42;;;;;;;14.13;12.70;;;;;;;1.38;100.00;96534.34;4994756;28;20525;-75
2023/12/01 06:40:12;;;;;;;14.80;12.33;;;;;;;1.33;100.00;96549.84;4994530;28;20254;-75
2023/12/01 06:42:42;;;;;;;13.07;11.73;;;;;;;1.28;100.00;96547.03;4994778;28;20285;-75
2023/12/01 06:45:10;;;;;;;13.63;12.23;;;;;;;1.24;100.00;96562.31;4994678;28;20217;-75
2023/12/01 06:47:37;;;;;;;14.23;12.73;;;;;;;1.33;100.00;96562.94;4994464;28;20210;-74
2023/12/01 06:50:03;;;;;;;14.80;13.27;;;;;;;1.26;100.00;96551.66;4994289;28;20690;-74
2023/12/01 06:52:30;;;;;;;13.87;12.47;;;;;;;1.31;100.00;96559.72;4994098;28;20627;-74
2023/12/01 06:54:56;;;;;;;13.60;12.30;;;;;;;1.25;100.00;96568.34;4994119;28;20203;-74
2023/12/01 06:57:24;;;;;;;13.43;12.07;;;;;;;1.30;100.00;96571.22;4994466;28;20234;-74
2023/12/01 06:59:52;;;;;;;13.97;12.67;;;;;;;1.29;100.00;96578.25;4994896;28;20222;-75
2023/12/01 07:02:19;;;;;;;13.87;12.10;;;;;;;1.34;100.00;96575.03;4994212;28;20235;-75
2023/12/01 07:04:45;;;;;;;13.07;11.73;;;;;;;1.33;100.00;96584.69;4993865;28;20678;-74
2023/12/01 07:07:13;;;;;;;12.60;11.30;;;;;;;1.35;100.00;96593.16;4993817;28;20670;-74
2023/12/01 07:09:45;;;;;;;12.37;11.17;;;;;;;1.27;100.00;96592.53;4994245;28;20301;-75
2023/12/01 07:12:11;;;;;;;12.30;11.10;;;;;;;1.39;100.00;96586.53;4993668;28;20207;-75
2023/12/01 07:14:39;;;;;;;13.70;11.60;;;;;;;1.44;100.00;96585.94;4993792;28;20231;-75
2023/12/01 07:17:06;;;;;;;12.57;11.27;;;;;;;1.43;100.00;96582.50;4993818;28;20207;-75
2023/12/01 07:19:41;;;;;;;12.67;11.37;;;;;;;1.35;100.00;96593.16;4993858;28;20227;-74
2023/12/01 07:22:08;;;;;;;13.27;11.93;;;;;;;1.38;100.00;96582.31;4993606;28;20665;-74
2023/12/01 07:24:34;;;;;;;15.70;14.10;;;;;;;1.46;100.00;96583.94;4993831;28;20576;-74
2023/12/01 07:27:02;;;;;;;14.80;13.33;;;;;;;1.43;100.00;96568.59;4993605;28;20207;-74
2023/12/01 07:29:29;;;;;;;15.27;13.63;;;;;;;1.45;100.00;96561.38;4993763;28;20234;-74
2023/12/01 07:31:55;;;;;;;14.57;13.13;;;;;;;1.44;100.00;96583.31;4994004;28;20223;-74
2023/12/01 07:34:22;;;;;;;14.57;13.10;;;;;;;1.52;100.00;96589.19;4993843;28;20231;-74
2023/12/01 07:36:48;;;;;;;13.77;12.20;;;;;;;1.45;100.00;96580.53;4993698;28;20207;-74
2023/12/01 07:39:15;;;;;;;14.47;12.97;;;;;;;1.42;100.00;96580.91;4993702;28;20319;-74
2023/12/01 07:41:42;;;;;;;15.30;13.00;;;;;;;1.41;100.00;96571.44;4993441;28;20234;-75
2023/12/01 07:44:08;;;;;;;18.67;15.00;;;;;;;1.40;100.00;96574.25;4992981;28;20207;-75
2023/12/01 07:46:34;;;;;;;16.70;14.90;;;;;;;1.40;100.00;96580.28;4993211;28;20689;-74
2023/12/01 07:49:01;;;;;;;16.60;14.83;;;;;;;1.30;100.00;96573.81;4993257;28;20702;-74
2023/12/01 07:51:27;;;;;;;19.07;16.23;;;;;;;1.37;100.00;96579.88;4992966;28;20219;-75
2023/12/01 07:53:53;;;;;;;18.77;15.50;;;;;;;1.34;100.00;96591.53;4994966;28;20231;-74
2023/12/01 07:56:21;;;;;;;16.53;14.93;;;;;;;1.38;100.00;96600.63;4997680;28;20230;-74
2023/12/01 07:58:49;;;;;;;16.40;14.80;;;;;;;1.39;100.00;96597.00;4997658;28;20258;-74
2023/12/01 08:01:16;;;;;;;15.47;13.97;;;;;;;1.54;100.00;96604.69;4997506;28;20207;-74
2023/12/01 08:03:46;;;;;;;16.00;14.30;;;;;;;1.40;100.00;96608.28;4997559;28;20199;-74
2023/12/01 08:06:13;;;;;;;15.53;14.03;;;;;;;1.34;100.00;96606.44;4997408;28;20243;-74
2023/12/01 08:08:40;;;;;;;15.83;14.23;;;;;;;1.51;100.00;96607.69;4997367;28;20207;-74
2023/12/01 08:11:06;;;;;;;16.53;14.67;;;;;;;1.40;100.00;96605.66;4997626;28;20203;-74
2023/12/01 08:13:33;;;;;;;15.90;14.20;;;;;;;1.45;100.00;96600.66;4997418;28;20246;-74
2023/12/01 08:15:59;;;;;;;15.90;13.83;;;;;;;1.46;100.00;96604.88;4997526;28;20207;-74
2023/12/01 08:18:26;;;;;;;15.70;14.03;;;;;;;1.44;100.00;96605.06;4997360;28;20203;-74
2023/12/01 08:20:52;;;;;;;16.03;14.33;;;;;;;1.37;100.00;96612.09;4997400;28;20635;-74
2023/12/01 08:23:19;;;;;;;17.93;15.33;;;;;;;1.41;100.00;96618.56;4997361;28;20597;-74
2023/12/01 08:25:46;;;;;;;16.50;14.73;;;;;;;1.45;100.00;96626.81;4997067;28;20215;-74
2023/12/01 08:28:12;;;;;;;15.33;13.93;;;;;;;1.50;100.00;96616.56;4997622;28;20257;-74
2023/12/01 08:30:38;;;;;;;16.60;14.97;;;;;;;1.53;100.00;96629.28;4997370;28;20231;-74
2023/12/01 08:33:05;;;;;;;16.20;14.70;;;;;;;1.63;100.00;96627.88;4997294;28;20207;-74
2023/12/01 08:35:32;;;;;;;16.17;14.47;;;;;;;1.42;100.00;96620.19;4997326;28;20218;-74
2023/12/01 08:37:58;;;;;;;16.03;14.43;;;;;;;1.47;100.00;96616.94;4996921;28;20211;-74
2023/12/01 08:40:25;;;;;;;15.07;13.47;;;;;;;1.48;100.00;96621.22;4996797;28;20763;-74
2023/12/01 08:42:53;;;;;;;15.37;13.90;;;;;;;1.46;100.00;96617.97;4996879;28;20243;-74
2023/12/01 08:45:19;;;;;;;15.50;13.87;;;;;;;1.46;100.00;96616.16;4996937;28;20210;-74
2023/12/01 08:47:46;;;;;;;17.33;15.00;;;;;;;1.71;100.00;96616.44;4997247;28;20207;-74
2023/12/01 08:50:12;;;;;;;14.80;13.33;;;;;;;1.60;100.00;96622.22;4996514;28;20710;-74
2023/12/01 08:52:39;;;;;;;15.40;13.90;;;;;;;1.53;100.00;96618.81;4996424;28;20693;-74
2023/12/01 08:55:07;;;;;;;16.43;14.33;;;;;;;1.54;100.00;96602.88;4996697;28;20226;-74
2023/12/01 08:57:34;;;;;;;15.27;13.77;;;;;;;1.55;100.00;96598.44;4996508;28;20235;-76
2023/12/01 09:00:01;;;;;;;15.70;14.23;;;;;;;1.54;100.00;96612.56;4996328;28;20223;-77
2023/12/01 09:02:27;;;;;;;17.00;15.23;;;;;;;1.58;100.00;96629.50;4996562;28;20207;-77
2023/12/01 09:04:54;;;;;;;15.37;12.93;;;;;;;1.57;100.00;96639.16;4995480;28;20199;-77
2023/12/01 09:07:21;;;;;;;14.80;13.17;;;;;;;1.66;100.00;96619.63;4996412;28;20678;-77
2023/12/01 09:09:47;;;;;;;16.40;14.80;;;;;;;1.76;100.00;96614.00;4996648;28;20231;-77
2023/12/01 09:12:14;;;;;;;16.07;14.43;;;;;;;1.67;100.00;96615.22;4997335;28;20226;-78
2023/12/01 09:14:41;;;;;;;14.27;12.87;;;;;;;1.79;100.00;96610.97;4996258;28;20227;-77
2023/12/01 09:17:08;;;;;;;13.97;12.60;;;;;;;1.71;100.00;96614.59;4996060;28;20303;-77
2023/12/01 09:19:34;;;;;;;15.20;13.70;;;;;;;1.67;100.00;96613.38;4995645;28;20227;-77
2023/12/01 09:22:00;;;;;;;15.73;14.20;;;;;;;1.56;100.00;96615.75;4995842;28;20211;-77
2023/12/01 09:24:27;;;;;;;16.30;14.70;;;;;;;1.53;100.00;96626.66;4995745;28;20752;-78
2023/12/01 09:26:53;;;;;;;16.87;14.57;;;;;;;1.69;100.00;96631.53;4995811;28;20218;-74
2023/12/01 09:29:19;;;;;;;18.00;15.63;;;;;;;1.69;100.00;96615.81;4995669;28;20227;-74
2023/12/01 09:31:47;;;;;;;16.90;15.17;;;;;;;1.66;100.00;96621.47;4995894;28;20203;-74
2023/12/01 09:34:14;;;;;;;17.87;16.07;;;;;;;1.54;100.00;96623.81;4995556;28;20583;-74
2023/12/01 09:36:42;;;;;;;21.07;16.07;;;;;;;1.52;100.00;96632.88;4996067;28;20207;-74
2023/12/01 09:39:09;;;;;;;17.27;15.43;;;;;;;1.53;100.00;96643.16;4996323;28;20231;-74
2023/12/01 09:41:36;;;;;;;16.70;15.00;;;;;;;1.68;100.00;96656.09;4996002;28;20203;-74
2023/12/01 09:44:03;;;;;;;17.67;15.47;;;;;;;1.65;100.00;96646.81;4995884;28;20203;-74
2023/12/01 09:46:34;;;;;;;17.30;15.50;;;;;;;1.64;100.00;96641.78;4996427;28;20203;-74
2023/12/01 09:49:05;;;;;;;17.57;15.77;;;;;;;1.66;100.00;96637.97;4995843;28;20223;-74
2023/12/01 09:51:34;;;;;;;16.63;14.93;;;;;;;1.74;100.00;96634.34;4995754;28;20253;-74
2023/12/01 09:54:02;;;;;;;17.73;15.93;;;;;;;1.68;100.00;96629.91;4995450;28;20250;-74
2023/12/01 09:56:28;;;;;;;16.17;14.57;;;;;;;1.78;100.00;96627.72;4995764;28;20207;-74
2023/12/01 09:58:56;;;;;;;17.80;15.43;;;;;;;1.68;100.00;96625.50;4995617;28;20227;-74
2023/12/01 10:01:24;;;;;;;16.93;15.23;;;;;;;1.73;100.00;96633.56;4995654;28;20208;-74
2023/12/01 10:03:50;;;;;;;17.03;15.03;;;;;;;1.70;100.00;96639.19;4995598;28;20206;-74
2023/12/01 10:06:18;;;;;;;17.93;16.13;;;;;;;1.72;100.00;96628.50;4995559;28;20287;-74
2023/12/01 10:08:45;;;;;;;17.17;15.50;;;;;;;1.76;100.00;96629.72;4995448;28;20203;-74
2023/12/01 10:11:25;;;;;;;18.57;14.97;;;;;;;1.67;100.00;96613.38;4995690;28;20576;-74
2023/12/01 10:13:52;;;;;;;17.00;15.00;;;;;;;1.82;100.00;96605.34;4995126;28;20233;-74
2023/12/01 10:16:20;;;;;;;17.30;15.60;;;;;;;1.73;100.00;96607.38;4994994;28;20214;-74
2023/12/01 10:19:13;;;;;;;18.03;16.10;;;;;;;1.70;100.00;96602.50;4995372;28;20262;-74
2023/12/01 10:21:46;;;;;;;19.87;17.77;;;;;;;1.64;100.00;96602.50;4994922;28;20245;-74
2023/12/01 10:24:17;;;;;;;22.03;18.20;;;;;;;1.60;100.00;96604.72;4995099;28;20624;-74
2023/12/01 10:26:45;;;;;;;21.03;18.27;;;;;;;1.59;100.00;96604.91;4995214;28;20192;-74
2023/12/01 10:29:30;;;;;;;20.30;18.17;;;;;;;1.57;100.00;96606.94;4994892;28;20231;-74
2023/12/01 10:31:58;;;;;;;23.92;21.48;;;;;;;1.49;100.00;96605.28;4994678;28;20428;-74
2023/12/01 10:34:24;;;;;;;22.20;19.90;;;;;;;1.56;100.00;96595.63;4994821;28;20227;-74
2023/12/01 10:36:52;;;;;;;22.30;18.60;;;;;;;1.78;100.00;96585.78;4994924;28;20211;-74
2023/12/01 10:39:19;;;;;;;23.63;19.47;;;;;;;1.54;100.00;96586.38;4994896;28;20235;-74
2023/12/01 10:41:48;;;;;;;21.87;19.47;;;;;;;1.53;100.00;96585.56;4995640;28;20622;-74
2023/12/01 10:44:16;;;;;;;24.90;19.63;;;;;;;1.70;100.00;96578.13;4994536;28;20242;-74
2023/12/01 10:46:46;;;;;;;23.33;20.17;;;;;;;1.59;100.00;96584.78;4994661;28;20207;-74
2023/12/01 10:49:17;;;;;;;23.57;20.93;;;;;;;1.58;100.00;96593.63;4994603;28;20230;-74
2023/12/01 10:51:44;;;;;;;25.03;20.27;;;;;;;1.65;100.00;96597.06;4994406;28;20215;-74
2023/12/01 10:54:11;;;;;;;22.00;19.63;;;;;;;1.53;100.00;96597.84;4994364;28;20291;-74
2023/12/01 10:56:56;;;;;;;23.87;21.13;;;;;;;1.38;100.00;96591.94;4994544;28;20207;-74
2023/12/01 10:59:25;;;;;;;25.13;22.17;;;;;;;1.44;100.00;96589.34;4994093;28;20630;-74
2023/12/01 11:01:53;;;;;;;27.43;22.80;;;;;;;1.49;100.00;96588.78;4994065;28;20218;-74
2023/12/01 11:04:26;;;;;;;26.03;21.67;;;;;;;1.50;100.00;96574.66;4994491;28;20242;-74
2023/12/01 11:07:31;;;;;;;28.27;22.83;;;;;;;1.58;100.00;96579.72;4994528;28;20239;-74
2023/12/01 11:10:12;;;;;;;25.87;22.37;;;;;;;1.68;100.00;96588.00;4994313;28;20234;-72
2023/12/01 11:13:07;;;;;;;26.30;22.00;;;;;;;1.58;100.00;96598.84;4994343;28;20516;-72
2023/12/01 11:15:36;;;;;;;24.63;21.00;;;;;;;1.60;100.00;96596.03;4994161;28;20221;-72
2023/12/01 11:18:03;;;;;;;28.27;24.17;;;;;;;1.53;100.00;96584.75;4993918;28;20554;-72
2023/12/01 11:20:36;;;;;;;29.77;24.77;;;;;;;1.61;100.00;96572.28;4993759;28;20273;-73